createdAt,value
2023-05-19T00:00:19.033Z,984.41
2023-05-19T00:01:18.955Z,984.43
2023-05-19T00:02:18.907Z,984.37
2023-05-19T00:03:18.915Z,984.37
2023-05-19T00:04:18.713Z,984.36
2023-05-19T00:05:18.662Z,984.37
2023-05-19T00:06:18.675Z,984.33
2023-05-19T00:07:18.470Z,984.35
2023-05-19T00:08:18.420Z,984.33
2023-05-19T00:09:18.308Z,984.33
2023-05-19T00:10:18.234Z,984.33
2023-05-19T00:11:18.151Z,984.30
2023-05-19T00:12:18.080Z,984.32
2023-05-19T00:13:17.988Z,984.30
2023-05-19T00:14:17.909Z,984.28
2023-05-19T00:15:17.827Z,984.27
2023-05-19T00:16:17.805Z,984.29
2023-05-19T00:17:17.669Z,984.30
2023-05-19T00:18:17.590Z,984.28
2023-05-19T00:19:17.556Z,984.29
2023-05-19T00:20:17.416Z,984.30
2023-05-19T00:21:17.345Z,984.28
2023-05-19T00:22:17.294Z,984.31
2023-05-19T00:23:17.186Z,984.31
2023-05-19T00:24:17.111Z,984.30
2023-05-19T00:25:17.019Z,984.29
2023-05-19T00:26:16.941Z,984.27
2023-05-19T00:27:16.860Z,984.24
2023-05-19T00:28:16.790Z,984.23
2023-05-19T00:29:16.699Z,984.20
2023-05-19T00:30:16.614Z,984.20
2023-05-19T00:31:16.599Z,984.16
2023-05-19T00:32:16.509Z,984.18
2023-05-19T00:33:16.382Z,984.19
2023-05-19T00:34:16.298Z,984.21
2023-05-19T00:35:16.222Z,984.18
2023-05-19T00:36:16.133Z,984.18
2023-05-19T00:37:16.054Z,984.18
2023-05-19T00:38:15.975Z,984.17
2023-05-19T00:39:15.967Z,984.19
2023-05-19T00:40:15.825Z,984.19
2023-05-19T00:41:15.734Z,984.16
2023-05-19T00:42:15.656Z,984.16
2023-05-19T00:43:15.570Z,984.15
2023-05-19T00:44:15.490Z,984.13
2023-05-19T00:45:15.409Z,984.14
2023-05-19T00:46:15.361Z,984.08
2023-05-19T00:47:15.257Z,984.10
2023-05-19T00:48:15.171Z,984.09
2023-05-19T00:49:15.109Z,984.11
2023-05-19T00:50:15.008Z,984.08
2023-05-19T00:51:14.925Z,984.07
2023-05-19T00:52:14.848Z,984.06
2023-05-19T00:53:14.766Z,984.04
2023-05-19T00:54:14.692Z,984.05
2023-05-19T00:55:14.611Z,984.06
2023-05-19T00:56:14.525Z,984.06
2023-05-19T00:57:14.447Z,983.99
2023-05-19T00:58:14.368Z,984.00
2023-05-19T00:59:14.286Z,983.97
2023-05-19T01:00:14.217Z,983.96
2023-05-19T01:01:14.168Z,984.00
2023-05-19T01:02:14.040Z,983.97
2023-05-19T01:03:14.059Z,983.99
2023-05-19T01:04:13.877Z,983.98
2023-05-19T01:05:13.802Z,983.99
2023-05-19T01:06:13.723Z,984.00
2023-05-19T01:07:13.641Z,983.97
2023-05-19T01:08:13.574Z,983.97
2023-05-19T01:09:13.472Z,983.98
2023-05-19T01:10:13.398Z,983.97
2023-05-19T01:11:13.335Z,983.96
2023-05-19T01:12:13.245Z,983.99
2023-05-19T01:13:13.154Z,983.99
2023-05-19T01:14:13.089Z,984.00
2023-05-19T01:15:13.000Z,984.03
2023-05-19T01:16:13.056Z,983.99
2023-05-19T01:17:12.836Z,984.01
2023-05-19T01:18:12.785Z,984.01
2023-05-19T01:19:12.705Z,983.98
2023-05-19T01:20:12.587Z,983.97
2023-05-19T01:21:12.511Z,984.02
2023-05-19T01:22:12.422Z,983.97
2023-05-19T01:23:12.346Z,983.97
2023-05-19T01:24:12.262Z,983.97
2023-05-19T01:25:12.186Z,983.97
2023-05-19T01:26:12.101Z,983.97
2023-05-19T01:27:12.024Z,983.94
2023-05-19T01:28:11.947Z,983.94
2023-05-19T01:29:11.859Z,983.92
2023-05-19T01:30:11.802Z,983.93
2023-05-19T01:31:11.697Z,983.97
2023-05-19T01:32:11.689Z,983.97
2023-05-19T01:33:11.540Z,983.99
2023-05-19T01:34:11.457Z,984.01
2023-05-19T01:35:11.372Z,983.99
2023-05-19T01:36:11.295Z,983.98
2023-05-19T01:37:11.218Z,984.00
2023-05-19T01:38:11.134Z,983.97
2023-05-19T01:39:11.047Z,983.99
2023-05-19T01:40:10.971Z,983.96
2023-05-19T01:41:10.887Z,983.96
2023-05-19T01:42:10.816Z,983.95
2023-05-19T01:43:10.791Z,983.95
2023-05-19T01:44:10.647Z,983.93
2023-05-19T01:45:10.601Z,983.91
2023-05-19T01:46:10.544Z,983.85
2023-05-19T01:47:10.404Z,983.91
2023-05-19T01:48:11.348Z,983.91
2023-05-19T01:49:10.240Z,983.92
2023-05-19T01:50:10.166Z,983.92
2023-05-19T01:51:10.082Z,983.92
2023-05-19T01:52:10.007Z,983.90
2023-05-19T01:53:09.920Z,983.91
2023-05-19T01:54:09.838Z,983.90
2023-05-19T01:55:09.761Z,983.84
2023-05-19T01:56:09.681Z,983.83
2023-05-19T01:57:09.600Z,983.81
2023-05-19T01:58:09.514Z,983.83
2023-05-19T01:59:09.442Z,983.82
2023-05-19T02:00:09.361Z,983.82
2023-05-19T02:01:09.311Z,983.83
2023-05-19T02:02:09.192Z,983.83
2023-05-19T02:03:09.156Z,983.80
2023-05-19T02:04:09.060Z,983.85
2023-05-19T02:05:08.993Z,983.80
2023-05-19T02:06:08.868Z,983.80
2023-05-19T02:07:08.786Z,983.80
2023-05-19T02:08:08.706Z,983.76
2023-05-19T02:09:08.625Z,983.79
2023-05-19T02:10:08.545Z,983.77
2023-05-19T02:11:08.461Z,983.80
2023-05-19T02:12:08.377Z,983.76
2023-05-19T02:13:08.295Z,983.78
2023-05-19T02:14:08.224Z,983.77
2023-05-19T02:15:08.141Z,983.78
2023-05-19T02:16:08.078Z,983.77
2023-05-19T02:17:07.971Z,983.79
2023-05-19T02:18:07.896Z,983.75
2023-05-19T02:19:08.639Z,983.79
2023-05-19T02:20:07.733Z,983.75
2023-05-19T02:21:07.655Z,983.76
2023-05-19T02:22:07.570Z,983.73
2023-05-19T02:23:07.515Z,983.73
2023-05-19T02:24:07.420Z,983.71
2023-05-19T02:25:07.323Z,983.72
2023-05-19T02:26:07.245Z,983.72
2023-05-19T02:27:07.166Z,983.69
2023-05-19T02:28:07.078Z,983.71
2023-05-19T02:29:06.994Z,983.69
2023-05-19T02:30:06.915Z,983.72
2023-05-19T02:31:06.837Z,983.72
2023-05-19T02:32:06.819Z,983.71
2023-05-19T02:33:06.734Z,983.75
2023-05-19T02:34:06.594Z,983.74
2023-05-19T02:35:06.513Z,983.72
2023-05-19T02:36:06.431Z,983.70
2023-05-19T02:37:06.349Z,983.70
2023-05-19T02:38:06.281Z,983.69
2023-05-19T02:39:06.190Z,983.70
2023-05-19T02:40:06.109Z,983.72
2023-05-19T02:41:06.030Z,983.68
2023-05-19T02:42:05.946Z,983.68
2023-05-19T02:43:05.866Z,983.69
2023-05-19T02:44:05.783Z,983.69
2023-05-19T02:45:05.710Z,983.72
2023-05-19T02:46:05.634Z,983.68
2023-05-19T02:47:05.545Z,983.66
2023-05-19T02:48:05.467Z,983.69
2023-05-19T02:49:05.377Z,983.70
2023-05-19T02:50:05.314Z,983.69
2023-05-19T02:51:05.221Z,983.69
2023-05-19T02:52:05.145Z,983.68
2023-05-19T02:53:05.052Z,983.64
2023-05-19T02:54:04.970Z,983.66
2023-05-19T02:55:04.891Z,983.67
2023-05-19T02:56:04.807Z,983.67
2023-05-19T02:57:04.729Z,983.63
2023-05-19T02:58:04.649Z,983.62
2023-05-19T02:59:04.566Z,983.63
2023-05-19T03:00:04.489Z,983.61
2023-05-19T03:01:04.405Z,983.63
2023-05-19T03:02:04.463Z,983.63
2023-05-19T03:03:04.391Z,983.62
2023-05-19T03:04:04.189Z,983.60
2023-05-19T03:05:04.078Z,983.58
2023-05-19T03:06:03.995Z,983.58
2023-05-19T03:07:03.917Z,983.58
2023-05-19T03:08:03.835Z,983.59
2023-05-19T03:09:03.755Z,983.58
2023-05-19T03:10:03.678Z,983.57
2023-05-19T03:11:03.642Z,983.57
2023-05-19T03:12:03.539Z,983.54
2023-05-19T03:13:03.426Z,983.55
2023-05-19T03:14:03.358Z,983.54
2023-05-19T03:15:03.267Z,983.55
2023-05-19T03:16:03.204Z,983.55
2023-05-19T03:17:03.117Z,983.54
2023-05-19T03:18:03.092Z,983.52
2023-05-19T03:19:02.990Z,983.59
2023-05-19T03:20:02.896Z,983.55
2023-05-19T03:21:02.788Z,983.53
2023-05-19T03:22:02.699Z,983.51
2023-05-19T03:23:02.623Z,983.51
2023-05-19T03:24:02.562Z,983.57
2023-05-19T03:25:02.484Z,983.56
2023-05-19T03:26:02.376Z,983.59
2023-05-19T03:27:02.312Z,983.61
2023-05-19T03:28:02.223Z,983.65
2023-05-19T03:29:02.134Z,983.62
2023-05-19T03:30:02.746Z,983.63
2023-05-19T03:31:01.970Z,983.64
2023-05-19T03:32:01.994Z,983.64
2023-05-19T03:33:01.888Z,983.66
2023-05-19T03:34:01.738Z,983.68
2023-05-19T03:35:01.660Z,983.70
2023-05-19T03:36:01.578Z,983.75
2023-05-19T03:37:01.487Z,983.75
2023-05-19T03:38:01.410Z,983.75
2023-05-19T03:39:01.323Z,983.75
2023-05-19T03:40:01.247Z,983.76
2023-05-19T03:41:01.168Z,983.73
2023-05-19T03:42:01.088Z,983.77
2023-05-19T03:43:01.004Z,983.73
2023-05-19T03:44:00.925Z,983.73
2023-05-19T03:45:00.840Z,983.73
2023-05-19T03:46:00.854Z,983.73
2023-05-19T03:47:00.697Z,983.75
2023-05-19T03:48:00.626Z,983.77
2023-05-19T03:49:00.517Z,983.77
2023-05-19T03:50:00.439Z,983.77
2023-05-19T03:51:00.486Z,983.80
2023-05-19T03:52:00.270Z,983.81
2023-05-19T03:53:00.191Z,983.82
2023-05-19T03:54:00.137Z,983.84
2023-05-19T03:55:00.033Z,983.78
2023-05-19T03:55:59.947Z,983.77
2023-05-19T03:56:59.862Z,983.82
2023-05-19T03:57:59.789Z,983.83
2023-05-19T03:58:59.705Z,983.81
2023-05-19T03:59:59.622Z,983.81
2023-05-19T04:00:59.544Z,983.79
2023-05-19T04:01:59.477Z,983.79
2023-05-19T04:02:59.448Z,983.79
2023-05-19T04:03:59.351Z,983.82
2023-05-19T04:04:59.287Z,983.83
2023-05-19T04:05:59.133Z,983.83
2023-05-19T04:06:59.058Z,983.83
2023-05-19T04:07:58.974Z,983.83
2023-05-19T04:08:58.892Z,983.83
2023-05-19T04:09:58.826Z,983.80
2023-05-19T04:10:58.750Z,983.87
2023-05-19T04:11:58.647Z,983.85
2023-05-19T04:12:58.574Z,983.84
2023-05-19T04:13:58.493Z,983.84
2023-05-19T04:14:58.403Z,983.84
2023-05-19T04:15:58.375Z,983.83
2023-05-19T04:16:58.272Z,983.82
2023-05-19T04:17:58.208Z,983.79
2023-05-19T04:18:58.138Z,983.83
2023-05-19T04:19:58.002Z,983.82
2023-05-19T04:20:57.918Z,983.83
2023-05-19T04:21:57.860Z,983.80
2023-05-19T04:22:57.762Z,983.77
2023-05-19T04:23:57.679Z,983.81
2023-05-19T04:24:57.596Z,983.82
2023-05-19T04:25:57.516Z,983.82
2023-05-19T04:26:57.431Z,983.79
2023-05-19T04:27:57.386Z,983.77
2023-05-19T04:28:57.275Z,983.80
2023-05-19T04:29:57.190Z,983.75
2023-05-19T04:30:57.146Z,983.80
2023-05-19T04:31:57.026Z,983.78
2023-05-19T04:32:57.062Z,983.74
2023-05-19T04:33:56.863Z,983.79
2023-05-19T04:34:56.787Z,983.78
2023-05-19T04:35:56.701Z,983.82
2023-05-19T04:36:56.622Z,983.79
2023-05-19T04:37:56.550Z,983.78
2023-05-19T04:38:56.604Z,983.80
2023-05-19T04:39:56.401Z,983.77
2023-05-19T04:40:56.308Z,983.77
2023-05-19T04:41:56.213Z,983.76
2023-05-19T04:42:56.143Z,983.77
2023-05-19T04:43:56.052Z,983.75
2023-05-19T04:44:55.975Z,983.76
2023-05-19T04:45:55.890Z,983.78
2023-05-19T04:46:55.828Z,983.78
2023-05-19T04:47:55.768Z,983.79
2023-05-19T04:48:55.648Z,983.77
2023-05-19T04:49:55.745Z,983.78
2023-05-19T04:50:55.490Z,983.73
2023-05-19T04:51:56.023Z,983.76
2023-05-19T04:52:55.339Z,983.76
2023-05-19T04:53:55.247Z,983.72
2023-05-19T04:54:55.169Z,983.74
2023-05-19T04:55:55.082Z,983.74
2023-05-19T04:56:55.003Z,983.75
2023-05-19T04:57:54.921Z,983.76
2023-05-19T04:58:54.856Z,983.78
2023-05-19T04:59:54.766Z,983.77
2023-05-19T05:00:54.679Z,983.78
2023-05-19T05:01:54.646Z,983.78
2023-05-19T05:02:54.596Z,983.79
2023-05-19T05:03:54.456Z,983.79
2023-05-19T05:04:54.355Z,983.80
2023-05-19T05:05:54.280Z,983.80
2023-05-19T05:06:54.192Z,983.79
2023-05-19T05:07:54.190Z,983.79
2023-05-19T05:08:54.029Z,983.78
2023-05-19T05:09:53.953Z,983.76
2023-05-19T05:10:53.875Z,983.76
2023-05-19T05:11:53.787Z,983.76
2023-05-19T05:12:53.712Z,983.75
2023-05-19T05:13:53.621Z,983.75
2023-05-19T05:14:53.540Z,983.75
2023-05-19T05:15:53.487Z,983.77
2023-05-19T05:16:54.302Z,983.78
2023-05-19T05:17:53.393Z,983.75
2023-05-19T05:18:53.263Z,983.76
2023-05-19T05:19:53.145Z,983.73
2023-05-19T05:20:53.075Z,983.73
2023-05-19T05:21:52.973Z,983.75
2023-05-19T05:22:52.894Z,983.73
2023-05-19T05:23:52.819Z,983.69
2023-05-19T05:24:52.733Z,983.70
2023-05-19T05:25:52.646Z,983.67
2023-05-19T05:26:52.565Z,983.69
2023-05-19T05:27:52.488Z,983.68
2023-05-19T05:28:52.410Z,983.70
2023-05-19T05:29:52.331Z,983.66
2023-05-19T05:30:52.255Z,983.66
2023-05-19T05:31:52.165Z,983.65
2023-05-19T05:32:52.176Z,983.66
2023-05-19T05:33:52.020Z,983.68
2023-05-19T05:34:51.927Z,983.65
2023-05-19T05:35:51.843Z,983.64
2023-05-19T05:36:51.764Z,983.66
2023-05-19T05:37:51.685Z,983.69
2023-05-19T05:38:51.596Z,983.66
2023-05-19T05:39:51.516Z,983.71
2023-05-19T05:40:51.442Z,983.72
2023-05-19T05:41:51.357Z,983.69
2023-05-19T05:42:51.318Z,983.72
2023-05-19T05:43:51.194Z,983.72
2023-05-19T05:44:51.130Z,983.71
2023-05-19T05:45:51.059Z,983.68
2023-05-19T05:46:50.953Z,983.67
2023-05-19T05:47:50.900Z,983.67
2023-05-19T05:48:50.795Z,983.68
2023-05-19T05:49:53.363Z,983.64
2023-05-19T05:50:50.626Z,983.66
2023-05-19T05:52:04.368Z,983.69
2023-05-19T05:52:50.480Z,983.68
2023-05-19T05:53:50.392Z,983.65
2023-05-19T05:54:50.309Z,983.67
2023-05-19T05:55:50.235Z,983.69
2023-05-19T05:56:50.148Z,983.68
2023-05-19T05:57:50.065Z,983.64
2023-05-19T05:58:50.002Z,983.70
2023-05-19T05:59:49.905Z,983.71
2023-05-19T06:00:49.828Z,983.68
2023-05-19T06:01:49.748Z,983.70
2023-05-19T06:02:49.745Z,983.71
2023-05-19T06:03:49.681Z,983.67
2023-05-19T06:04:49.502Z,983.68
2023-05-19T06:05:49.487Z,983.67
2023-05-19T06:06:49.339Z,983.66
2023-05-19T06:07:49.268Z,983.65
2023-05-19T06:08:49.188Z,983.67
2023-05-19T06:09:49.116Z,983.64
2023-05-19T06:10:49.042Z,983.64
2023-05-19T06:11:48.954Z,983.63
2023-05-19T06:12:48.902Z,983.63
2023-05-19T06:13:48.782Z,983.62
2023-05-19T06:14:48.715Z,983.61
2023-05-19T06:15:48.627Z,983.61
2023-05-19T06:16:48.535Z,983.57
2023-05-19T06:17:48.531Z,983.56
2023-05-19T06:18:48.413Z,983.57
2023-05-19T06:19:48.296Z,983.56
2023-05-19T06:20:48.238Z,983.54
2023-05-19T06:21:48.135Z,983.57
2023-05-19T06:22:48.058Z,983.53
2023-05-19T06:23:47.978Z,983.53
2023-05-19T06:24:47.908Z,983.54
2023-05-19T06:25:47.818Z,983.54
2023-05-19T06:26:47.744Z,983.54
2023-05-19T06:27:47.654Z,983.51
2023-05-19T06:28:47.572Z,983.52
2023-05-19T06:29:47.512Z,983.52
2023-05-19T06:30:47.444Z,983.52
2023-05-19T06:31:47.371Z,983.55
2023-05-19T06:32:47.265Z,983.53
2023-05-19T06:33:47.176Z,983.52
2023-05-19T06:34:47.095Z,983.50
2023-05-19T06:35:47.019Z,983.51
2023-05-19T06:36:46.952Z,983.48
2023-05-19T06:37:46.871Z,983.52
2023-05-19T06:38:46.783Z,983.52
2023-05-19T06:39:46.699Z,983.51
2023-05-19T06:40:46.625Z,983.55
2023-05-19T06:41:46.531Z,983.58
2023-05-19T06:42:46.461Z,983.58
2023-05-19T06:43:46.380Z,983.60
2023-05-19T06:44:46.295Z,983.60
2023-05-19T06:45:46.237Z,983.59
2023-05-19T06:46:46.172Z,983.60
2023-05-19T06:47:46.076Z,983.57
2023-05-19T06:48:45.993Z,983.56
2023-05-19T06:49:45.894Z,983.54
2023-05-19T06:50:45.816Z,983.59
2023-05-19T06:51:45.739Z,983.55
2023-05-19T06:52:45.657Z,983.57
2023-05-19T06:53:45.579Z,983.58
2023-05-19T06:54:45.507Z,983.56
2023-05-19T06:55:58.075Z,983.56
2023-05-19T06:56:45.371Z,983.56
2023-05-19T06:57:45.262Z,983.56
2023-05-19T06:58:45.179Z,983.53
2023-05-19T06:59:45.103Z,983.55
2023-05-19T07:00:45.020Z,983.52
2023-05-19T07:01:45.025Z,983.53
2023-05-19T07:02:44.928Z,983.53
2023-05-19T07:03:44.877Z,983.51
2023-05-19T07:04:44.698Z,983.51
2023-05-19T07:05:44.633Z,983.53
2023-05-19T07:06:44.547Z,983.48
2023-05-19T07:07:44.470Z,983.50
2023-05-19T07:08:44.418Z,983.46
2023-05-19T07:09:44.304Z,983.51
2023-05-19T07:10:44.225Z,983.48
2023-05-19T07:11:44.156Z,983.46
2023-05-19T07:12:44.069Z,983.50
2023-05-19T07:13:44.011Z,983.44
2023-05-19T07:14:43.909Z,983.42
2023-05-19T07:15:43.837Z,983.39
2023-05-19T07:16:43.787Z,983.41
2023-05-19T07:17:43.710Z,983.38
2023-05-19T07:18:43.709Z,983.37
2023-05-19T07:19:43.525Z,983.36
2023-05-19T07:20:43.434Z,983.41
2023-05-19T07:21:43.352Z,983.41
2023-05-19T07:22:43.273Z,983.40
2023-05-19T07:23:43.200Z,983.41
2023-05-19T07:24:43.118Z,983.39
2023-05-19T07:25:43.050Z,983.40
2023-05-19T07:26:42.957Z,983.35
2023-05-19T07:27:42.876Z,983.38
2023-05-19T07:28:42.826Z,983.36
2023-05-19T07:29:42.738Z,983.36
2023-05-19T07:30:42.639Z,983.32
2023-05-19T07:31:42.603Z,983.30
2023-05-19T07:32:42.514Z,983.31
2023-05-19T07:33:42.403Z,983.34
2023-05-19T07:34:42.324Z,983.35
2023-05-19T07:35:42.245Z,983.35
2023-05-19T07:36:42.185Z,983.33
2023-05-19T07:37:42.093Z,983.30
2023-05-19T07:38:42.027Z,983.33
2023-05-19T07:39:41.925Z,983.35
2023-05-19T07:40:41.857Z,983.30
2023-05-19T07:41:41.785Z,983.33
2023-05-19T07:42:41.690Z,983.33
2023-05-19T07:43:41.607Z,983.35
2023-05-19T07:44:41.529Z,983.38
2023-05-19T07:45:41.487Z,983.37
2023-05-19T07:46:41.416Z,983.38
2023-05-19T07:47:41.346Z,983.38
2023-05-19T07:48:41.212Z,983.39
2023-05-19T07:49:41.129Z,983.39
2023-05-19T07:50:41.058Z,983.40
2023-05-19T07:51:40.972Z,983.40
2023-05-19T07:52:40.894Z,983.37
2023-05-19T07:53:40.818Z,983.40
2023-05-19T07:54:40.741Z,983.39
2023-05-19T07:55:40.664Z,983.32
2023-05-19T07:56:40.585Z,983.34
2023-05-19T07:57:40.498Z,983.31
2023-05-19T07:58:40.422Z,983.30
2023-05-19T07:59:40.352Z,983.29
2023-05-19T08:00:40.263Z,983.29
2023-05-19T08:01:40.186Z,983.29
2023-05-19T08:02:40.193Z,983.29
2023-05-19T08:03:40.097Z,983.25
2023-05-19T08:04:39.988Z,983.23
2023-05-19T08:05:39.868Z,983.25
2023-05-19T08:06:39.835Z,983.20
2023-05-19T08:07:39.713Z,983.23
2023-05-19T08:08:39.635Z,983.20
2023-05-19T08:09:39.551Z,983.21
2023-05-19T08:10:39.487Z,983.21
2023-05-19T08:11:39.393Z,983.24
2023-05-19T08:12:39.322Z,983.22
2023-05-19T08:13:39.242Z,983.24
2023-05-19T08:14:39.161Z,983.18
2023-05-19T08:15:39.209Z,983.26
2023-05-19T08:16:39.004Z,983.27
2023-05-19T08:17:38.954Z,983.25
2023-05-19T08:18:38.875Z,983.24
2023-05-19T08:19:38.773Z,983.25
2023-05-19T08:20:38.712Z,983.17
2023-05-19T08:21:38.611Z,983.22
2023-05-19T08:22:38.592Z,983.22
2023-05-19T08:23:38.457Z,983.22
2023-05-19T08:24:38.382Z,983.18
2023-05-19T08:25:38.302Z,983.22
2023-05-19T08:26:38.307Z,983.25
2023-05-19T08:27:38.149Z,983.18
2023-05-19T08:28:38.067Z,983.19
2023-05-19T08:29:37.987Z,983.20
2023-05-19T08:30:37.912Z,983.22
2023-05-19T08:31:37.866Z,983.16
2023-05-19T08:32:37.759Z,983.19
2023-05-19T08:33:37.676Z,983.15
2023-05-19T08:34:37.609Z,983.11
2023-05-19T08:35:37.529Z,983.14
2023-05-19T08:36:37.445Z,983.13
2023-05-19T08:37:37.360Z,983.07
2023-05-19T08:38:37.381Z,983.10
2023-05-19T08:39:37.209Z,983.05
2023-05-19T08:40:37.140Z,983.07
2023-05-19T08:41:37.065Z,983.06
2023-05-19T08:42:36.969Z,983.07
2023-05-19T08:43:36.890Z,983.07
2023-05-19T08:44:36.811Z,983.07
2023-05-19T08:45:36.741Z,983.07
2023-05-19T08:46:36.742Z,983.06
2023-05-19T08:47:36.655Z,983.05
2023-05-19T08:48:36.502Z,983.01
2023-05-19T08:49:36.422Z,983.00
2023-05-19T08:50:36.344Z,983.01
2023-05-19T08:51:36.289Z,983.01
2023-05-19T08:52:36.179Z,982.97
2023-05-19T08:53:36.114Z,982.97
2023-05-19T08:54:36.040Z,982.98
2023-05-19T08:55:35.971Z,982.98
2023-05-19T08:56:35.884Z,982.97
2023-05-19T08:57:35.800Z,982.90
2023-05-19T08:58:35.724Z,982.93
2023-05-19T08:59:35.665Z,982.88
2023-05-19T09:00:36.129Z,982.87
2023-05-19T09:02:35.435Z,982.85
2023-05-19T09:03:35.403Z,982.85
2023-05-19T09:04:35.320Z,982.86
2023-05-19T09:05:35.465Z,982.88
2023-05-19T09:06:35.099Z,982.85
2023-05-19T09:07:35.041Z,982.79
2023-05-19T09:08:34.946Z,982.81
2023-05-19T09:09:34.872Z,982.76
2023-05-19T09:10:34.798Z,982.76
2023-05-19T09:11:34.711Z,982.74
2023-05-19T09:12:34.628Z,982.74
2023-05-19T09:13:34.558Z,982.75
2023-05-19T09:14:34.484Z,982.78
2023-05-19T09:15:34.741Z,982.77
2023-05-19T09:16:34.480Z,982.80
2023-05-19T09:17:34.317Z,982.80
2023-05-19T09:18:34.177Z,982.81
2023-05-19T09:19:34.137Z,982.78
2023-05-19T09:20:34.020Z,982.79
2023-05-19T09:21:33.934Z,982.74
2023-05-19T09:22:33.874Z,982.76
2023-05-19T09:23:33.784Z,982.77
2023-05-19T09:24:33.710Z,982.76
2023-05-19T09:25:33.817Z,982.80
2023-05-19T09:26:33.554Z,982.75
2023-05-19T09:27:33.476Z,982.75
2023-05-19T09:28:33.440Z,982.73
2023-05-19T09:29:33.321Z,982.71
2023-05-19T09:30:33.243Z,982.72
2023-05-19T09:31:33.212Z,982.74
2023-05-19T09:32:33.195Z,982.70
2023-05-19T09:33:33.021Z,982.68
2023-05-19T09:34:32.944Z,982.67
2023-05-19T09:35:33.095Z,982.68
2023-05-19T09:36:32.779Z,982.67
2023-05-19T09:37:32.703Z,982.67
2023-05-19T09:38:32.619Z,982.68
2023-05-19T09:39:32.548Z,982.65
2023-05-19T09:40:32.478Z,982.69
2023-05-19T09:41:32.397Z,982.70
2023-05-19T09:42:32.320Z,982.69
2023-05-19T09:43:32.237Z,982.64
2023-05-19T09:44:32.166Z,982.65
2023-05-19T09:45:32.287Z,982.66
2023-05-19T09:46:32.066Z,982.68
2023-05-19T09:47:31.990Z,982.65
2023-05-19T09:48:31.859Z,982.61
2023-05-19T09:49:31.781Z,982.55
2023-05-19T09:50:31.709Z,982.59
2023-05-19T09:51:31.634Z,982.56
2023-05-19T09:52:31.564Z,982.52
2023-05-19T09:53:31.488Z,982.55
2023-05-19T09:54:31.395Z,982.52
2023-05-19T09:55:31.408Z,982.51
2023-05-19T09:56:31.244Z,982.49
2023-05-19T09:57:31.173Z,982.48
2023-05-19T09:58:31.156Z,982.50
2023-05-19T09:59:33.485Z,982.49
2023-05-19T10:00:31.180Z,982.50
2023-05-19T10:01:30.914Z,982.50
2023-05-19T10:02:30.813Z,982.52
2023-05-19T10:03:30.721Z,982.48
2023-05-19T10:04:30.704Z,982.49
2023-05-19T10:05:30.567Z,982.53
2023-05-19T10:06:30.529Z,982.48
2023-05-19T10:07:30.412Z,982.49
2023-05-19T10:08:30.465Z,982.49
2023-05-19T10:09:30.275Z,982.53
2023-05-19T10:10:30.182Z,982.49
2023-05-19T10:11:30.110Z,982.47
2023-05-19T10:12:30.034Z,982.47
2023-05-19T10:13:29.997Z,982.46
2023-05-19T10:14:29.885Z,982.44
2023-05-19T10:15:29.837Z,982.46
2023-05-19T10:16:29.797Z,982.42
2023-05-19T10:17:29.681Z,982.41
2023-05-19T10:18:29.974Z,982.43
2023-05-19T10:19:29.694Z,982.45
2023-05-19T10:20:29.433Z,982.41
2023-05-19T10:21:29.363Z,982.40
2023-05-19T10:22:29.282Z,982.41
2023-05-19T10:23:29.195Z,982.40
2023-05-19T10:24:29.124Z,982.38
2023-05-19T10:25:29.060Z,982.39
2023-05-19T10:26:28.975Z,982.39
2023-05-19T10:27:28.911Z,982.37
2023-05-19T10:28:28.820Z,982.32
2023-05-19T10:29:28.748Z,982.33
2023-05-19T10:30:28.674Z,982.29
2023-05-19T10:31:28.621Z,982.32
2023-05-19T10:32:28.620Z,982.28
2023-05-19T10:33:28.443Z,982.30
2023-05-19T10:34:28.370Z,982.29
2023-05-19T10:35:28.306Z,982.27
2023-05-19T10:36:28.210Z,982.26
2023-05-19T10:37:28.144Z,982.23
2023-05-19T10:38:28.073Z,982.23
2023-05-19T10:39:28.030Z,982.22
2023-05-19T10:40:27.916Z,982.19
2023-05-19T10:41:27.861Z,982.17
2023-05-19T10:42:27.768Z,982.10
2023-05-19T10:43:27.683Z,982.10
2023-05-19T10:44:27.605Z,982.14
2023-05-19T10:45:27.539Z,982.09
2023-05-19T10:46:27.529Z,982.07
2023-05-19T10:47:27.410Z,982.11
2023-05-19T10:48:27.316Z,982.05
2023-05-19T10:49:27.226Z,982.04
2023-05-19T10:50:27.150Z,982.06
2023-05-19T10:51:27.077Z,982.04
2023-05-19T10:52:27.058Z,982.06
2023-05-19T10:53:26.924Z,982.07
2023-05-19T10:54:26.853Z,982.09
2023-05-19T10:55:26.781Z,982.08
2023-05-19T10:56:26.705Z,982.06
2023-05-19T10:57:26.625Z,982.05
2023-05-19T10:58:26.549Z,982.07
2023-05-19T10:59:27.863Z,982.05
2023-05-19T11:00:26.407Z,982.02
2023-05-19T11:01:26.335Z,982.05
2023-05-19T11:02:26.362Z,982.04
2023-05-19T11:03:26.227Z,982.07
2023-05-19T11:04:26.169Z,982.06
2023-05-19T11:05:26.031Z,982.08
2023-05-19T11:06:25.949Z,982.09
2023-05-19T11:07:25.894Z,982.13
2023-05-19T11:08:25.813Z,982.11
2023-05-19T11:09:34.021Z,982.12
2023-05-19T11:10:25.658Z,982.13
2023-05-19T11:11:25.575Z,982.10
2023-05-19T11:12:25.672Z,982.08
2023-05-19T11:13:26.182Z,982.09
2023-05-19T11:14:25.350Z,982.09
2023-05-19T11:15:25.271Z,982.09
2023-05-19T11:16:25.233Z,982.07
2023-05-19T11:17:25.165Z,981.99
2023-05-19T11:18:25.189Z,982.00
2023-05-19T11:19:25.018Z,982.03
2023-05-19T11:20:24.888Z,982.01
2023-05-19T11:21:24.998Z,981.93
2023-05-19T11:22:24.746Z,981.93
2023-05-19T11:23:24.708Z,981.85
2023-05-19T11:24:24.597Z,981.85
2023-05-19T11:25:24.520Z,981.85
2023-05-19T11:26:24.445Z,981.84
2023-05-19T11:27:24.382Z,981.82
2023-05-19T11:28:24.301Z,981.78
2023-05-19T11:29:24.224Z,981.84
2023-05-19T11:30:24.148Z,981.77
2023-05-19T11:31:24.098Z,981.83
2023-05-19T11:32:24.028Z,981.85
2023-05-19T11:33:23.919Z,981.80
2023-05-19T11:34:23.867Z,981.81
2023-05-19T11:35:23.782Z,981.85
2023-05-19T11:36:23.695Z,981.88
2023-05-19T11:37:23.621Z,981.86
2023-05-19T11:38:23.578Z,981.82
2023-05-19T11:39:23.480Z,981.88
2023-05-19T11:40:23.396Z,981.92
2023-05-19T11:41:23.322Z,981.89
2023-05-19T11:42:23.252Z,981.92
2023-05-19T11:43:23.177Z,981.91
2023-05-19T11:44:23.139Z,981.89
2023-05-19T11:45:23.061Z,981.87
2023-05-19T11:46:22.997Z,981.83
2023-05-19T11:47:22.912Z,981.82
2023-05-19T11:48:22.868Z,981.81
2023-05-19T11:49:22.741Z,981.84
2023-05-19T11:50:22.750Z,981.81
2023-05-19T11:51:22.575Z,981.82
2023-05-19T11:52:22.496Z,981.81
2023-05-19T11:53:22.422Z,981.79
2023-05-19T11:54:22.348Z,981.79
2023-05-19T11:55:22.314Z,981.79
2023-05-19T11:56:22.196Z,981.78
2023-05-19T11:57:22.122Z,981.83
2023-05-19T11:58:22.049Z,981.85
2023-05-19T11:59:21.974Z,981.84
2023-05-19T12:00:21.902Z,981.81
2023-05-19T12:01:21.822Z,981.81
2023-05-19T12:02:21.770Z,981.80
2023-05-19T12:03:21.791Z,981.77
2023-05-19T12:04:21.608Z,981.83
2023-05-19T12:05:21.631Z,981.83
2023-05-19T12:06:21.510Z,981.83
2023-05-19T12:07:21.375Z,981.82
2023-05-19T12:08:21.301Z,981.84
2023-05-19T12:09:21.228Z,981.81
2023-05-19T12:10:21.152Z,981.82
2023-05-19T12:11:21.090Z,981.79
2023-05-19T12:12:21.008Z,981.82
2023-05-19T12:13:20.950Z,981.76
2023-05-19T12:14:20.853Z,981.80
2023-05-19T12:15:20.771Z,981.75
2023-05-19T12:16:20.737Z,981.76
2023-05-19T12:17:20.628Z,981.76
2023-05-19T12:18:20.552Z,981.74
2023-05-19T12:19:20.525Z,981.76
2023-05-19T12:20:20.409Z,981.74
2023-05-19T12:21:20.324Z,981.76
2023-05-19T12:22:20.292Z,981.77
2023-05-19T12:23:20.194Z,981.73
2023-05-19T12:24:20.101Z,981.78
2023-05-19T12:25:20.026Z,981.79
2023-05-19T12:26:19.958Z,981.73
2023-05-19T12:27:19.874Z,981.70
2023-05-19T12:28:19.825Z,981.68